Time;durP1;ratioP1;P1;durP2;ratioP2;P2;SDS_P1;SDS_P2;PMS_P1;PMS_P2;Temp;Humidity;BMP_temperature;BMP_pressure;BME280_temperature;BME280_humidity;BME280_pressure;Samples;Min_cycle;Max_cycle;Signal;HPM_P1;HPM_P2
2022/10/28 00:02:01;;;;;;;17.70;8.75;;;;;;;14.70;98.29;101654.91;5078356;28;20024;-59
2022/10/28 00:04:26;;;;;;;18.40;9.27;;;;;;;14.68;98.76;101651.56;5084195;28;20486;-58
2022/10/28 00:06:51;;;;;;;19.45;9.77;;;;;;;14.66;99.51;101660.56;5081530;28;20418;-58
2022/10/28 00:09:17;;;;;;;20.30;9.02;;;;;;;14.65;98.97;101658.91;5073149;28;20027;-57
2022/10/28 00:11:42;;;;;;;20.83;9.27;;;;;;;14.59;99.21;101662.25;5082187;28;20027;-58
2022/10/28 00:14:09;;;;;;;19.02;8.93;;;;;;;14.55;99.03;101658.25;5074084;28;20020;-58
2022/10/28 00:16:36;;;;;;;17.38;9.05;;;;;;;14.51;98.49;101651.59;5082004;28;20045;-58
2022/10/28 00:19:03;;;;;;;20.58;9.40;;;;;;;14.43;98.69;101654.25;5079866;28;20517;-58
2022/10/28 00:21:31;;;;;;;17.73;9.52;;;;;;;14.39;99.50;101646.59;5081165;28;20042;-60
2022/10/28 00:23:57;;;;;;;17.95;9.32;;;;;;;14.31;99.02;101651.91;5084093;28;20123;-58
2022/10/28 00:26:25;;;;;;;18.13;9.18;;;;;;;14.34;98.86;101645.41;5076957;28;20111;-59
2022/10/28 00:28:53;;;;;;;18.63;9.82;;;;;;;14.24;99.59;101651.75;5065289;28;20029;-60
2022/10/28 00:31:21;;;;;;;19.35;9.90;;;;;;;14.26;100.00;101649.75;5080439;28;20562;-61
2022/10/28 00:33:46;;;;;;;21.48;9.60;;;;;;;14.30;100.00;101644.09;5082650;28;20036;-58
2022/10/28 00:36:21;;;;;;;22.10;9.57;;;;;;;14.32;99.58;101644.75;5082499;28;20043;-58
2022/10/28 00:38:49;;;;;;;21.80;9.48;;;;;;;14.29;99.47;101648.56;5083102;28;20039;-59
2022/10/28 00:41:20;;;;;;;22.67;10.15;;;;;;;14.26;99.89;101648.91;5077492;28;20135;-57
2022/10/28 00:43:51;;;;;;;20.17;9.38;;;;;;;14.24;99.50;101640.22;5076383;28;20035;-58
2022/10/28 00:46:31;;;;;;;17.60;9.10;;;;;;;14.24;99.11;101645.56;5079971;28;20490;-58
2022/10/28 00:49:13;;;;;;;18.35;9.23;;;;;;;14.17;99.62;101641.91;5082115;28;20092;-59
2022/10/28 00:51:40;;;;;;;19.83;9.38;;;;;;;14.12;99.06;101632.56;5084089;28;20040;-59
2022/10/28 00:54:06;;;;;;;18.83;9.25;;;;;;;14.05;99.42;101631.56;5080295;28;20040;-58
2022/10/28 00:56:35;;;;;;;16.55;9.15;;;;;;;14.04;99.62;101623.72;5083502;28;20043;-57
2022/10/28 00:59:05;;;;;;;19.45;9.18;;;;;;;14.05;98.95;101623.56;5076965;28;20028;-60
2022/10/28 01:01:31;;;;;;;16.95;9.40;;;;;;;14.00;99.56;101623.22;5075967;28;20111;-57
2022/10/28 01:03:56;;;;;;;19.88;9.98;;;;;;;13.96;99.07;101613.91;5080810;28;20107;-58
2022/10/28 01:06:23;;;;;;;17.38;9.40;;;;;;;13.89;99.58;101604.88;5083354;28;20064;-58
2022/10/28 01:08:49;;;;;;;20.48;10.40;;;;;;;13.89;99.59;101610.19;5072046;28;20085;-61
2022/10/28 01:11:26;;;;;;;17.92;9.85;;;;;;;13.91;99.66;101605.56;5083120;28;20520;-60
2022/10/28 01:14:06;;;;;;;19.25;9.95;;;;;;;13.86;100.00;101606.03;5079959;28;20050;-59
2022/10/28 01:16:40;;;;;;;21.38;9.75;;;;;;;13.88;99.38;101601.38;5081593;28;20036;-57
2022/10/28 01:19:31;;;;;;;19.90;9.30;;;;;;;13.89;100.00;101610.19;5075635;28;20082;-61
2022/10/28 01:22:19;;;;;;;19.50;9.65;;;;;;;13.90;99.67;101607.38;5080366;28;20047;-58
2022/10/28 01:24:57;;;;;;;20.52;9.05;;;;;;;13.89;99.29;101608.38;5080966;28;20036;-59
2022/10/28 01:27:41;;;;;;;19.75;9.25;;;;;;;13.89;99.35;101610.19;5072604;28;20118;-58
2022/10/28 01:30:18;;;;;;;18.08;9.98;;;;;;;13.84;99.50;101606.22;5083699;28;20120;-59
2022/10/28 01:32:51;;;;;;;18.98;9.48;;;;;;;13.82;99.13;101597.53;5086609;28;20441;-59
2022/10/28 01:35:20;;;;;;;23.02;9.45;;;;;;;13.82;99.47;101599.38;5084454;28;20384;-57
2022/10/28 01:38:14;;;;;;;18.65;8.90;;;;;;;13.82;99.21;101600.19;5086586;28;20047;-58
2022/10/28 01:40:56;;;;;;;17.95;8.55;;;;;;;13.82;99.63;101591.38;5083497;28;20079;-60
2022/10/28 01:43:28;;;;;;;18.00;8.38;;;;;;;13.81;99.15;101595.88;5084414;28;20110;-58
2022/10/28 01:46:04;;;;;;;17.58;8.75;;;;;;;13.83;99.60;101593.03;5078827;28;20032;-60
2022/10/28 01:48:38;;;;;;;16.15;8.88;;;;;;;13.74;100.00;101586.84;5077354;28;20128;-60
2022/10/28 01:51:10;;;;;;;19.77;9.15;;;;;;;13.80;100.00;101591.53;5086766;28;20036;-59
2022/10/28 01:53:40;;;;;;;17.80;8.45;;;;;;;13.80;99.90;101590.69;5086062;28;20135;-59
2022/10/28 01:56:11;;;;;;;18.67;8.35;;;;;;;13.79;99.28;101592.53;5085707;28;20028;-57
2022/10/28 01:58:37;;;;;;;15.55;7.85;;;;;;;13.78;99.29;101590.88;5079814;28;20715;-58
2022/10/28 02:01:05;;;;;;;19.75;8.30;;;;;;;13.76;99.09;101595.50;5084282;28;20462;-58
2022/10/28 02:03:30;;;;;;;15.82;8.43;;;;;;;13.72;99.30;101589.69;5081617;28;20058;-59
2022/10/28 02:05:59;;;;;;;17.83;7.93;;;;;;;13.70;99.01;101588.19;5078045;28;20035;-59
2022/10/28 02:08:49;;;;;;;16.77;8.00;;;;;;;13.77;98.71;101585.69;5083187;28;20032;-58
2022/10/28 02:11:20;;;;;;;17.98;7.95;;;;;;;13.69;98.86;101590.03;5078712;28;20040;-60
2022/10/28 02:13:59;;;;;;;15.15;7.85;;;;;;;13.68;99.08;101584.84;5082585;28;20048;-59
2022/10/28 02:16:49;;;;;;;18.45;7.93;;;;;;;13.68;98.95;101576.84;5083339;28;20024;-59
2022/10/28 02:19:37;;;;;;;19.00;7.68;;;;;;;13.67;98.89;101586.66;5086378;28;20056;-59
2022/10/28 02:22:40;;;;;;;17.13;7.20;;;;;;;13.74;99.24;101586.00;5083903;28;20857;-57
2022/10/28 02:25:09;;;;;;;17.85;7.50;;;;;;;13.70;99.03;101583.69;5085171;28;20059;-58
2022/10/28 02:27:43;;;;;;;16.25;7.30;;;;;;;13.71;98.69;101587.19;5086646;28;20503;-59
2022/10/28 02:30:17;;;;;;;15.82;7.10;;;;;;;13.68;98.75;101582.19;5084580;28;20899;-58
2022/10/28 02:32:48;;;;;;;18.10;7.13;;;;;;;13.69;98.63;101581.19;5086811;28;20042;-60
2022/10/28 02:35:19;;;;;;;14.02;6.80;;;;;;;13.66;98.84;101568.19;5085926;28;20081;-59
2022/10/28 02:37:47;;;;;;;13.88;6.68;;;;;;;13.66;98.48;101578.88;5076044;28;20037;-60
2022/10/28 02:40:19;;;;;;;13.65;6.57;;;;;;;13.64;98.50;101570.19;5079355;28;20028;-58
2022/10/28 02:42:55;;;;;;;16.05;6.82;;;;;;;13.65;98.70;101566.50;5083707;28;20094;-58
2022/10/28 02:45:27;;;;;;;19.73;6.70;;;;;;;13.68;98.36;101579.53;5083200;28;20036;-58
2022/10/28 02:48:04;;;;;;;16.70;6.55;;;;;;;13.69;98.15;101573.19;5081775;28;20123;-57
2022/10/28 02:50:36;;;;;;;15.13;6.40;;;;;;;13.70;98.52;101586.34;5086554;28;20032;-60
2022/10/28 02:53:22;;;;;;;20.63;6.55;;;;;;;13.74;99.20;101576.19;5078319;28;20028;-58
2022/10/28 02:55:53;;;;;;;16.75;6.30;;;;;;;13.82;98.70;101580.72;5078708;28;20036;-61
2022/10/28 02:58:19;;;;;;;15.15;6.22;;;;;;;13.82;99.07;101568.19;5072050;28;20028;-58
2022/10/28 03:00:45;;;;;;;19.30;6.72;;;;;;;13.81;98.92;101563.06;5084488;28;20463;-58
2022/10/28 03:03:10;;;;;;;17.23;6.30;;;;;;;13.82;98.69;101568.19;5081745;28;20587;-58
2022/10/28 03:05:35;;;;;;;16.45;6.07;;;;;;;13.88;98.65;101565.88;5077085;28;20111;-60
2022/10/28 03:08:01;;;;;;;14.15;5.68;;;;;;;13.88;97.87;101560.53;5079809;28;20127;-60
2022/10/28 03:10:26;;;;;;;17.98;6.05;;;;;;;13.91;98.30;101570.88;5085674;28;20856;-59
2022/10/28 03:12:51;;;;;;;16.38;6.03;;;;;;;13.92;97.38;101561.88;5082850;28;20531;-58
2022/10/28 03:15:17;;;;;;;14.98;5.90;;;;;;;13.90;98.30;101563.88;5083921;28;20028;-58
2022/10/28 03:17:42;;;;;;;16.67;5.75;;;;;;;13.89;97.90;101557.72;5085489;28;20032;-58
2022/10/28 03:20:08;;;;;;;17.30;5.80;;;;;;;13.93;97.92;101563.56;5082777;28;20085;-58
2022/10/28 03:22:33;;;;;;;14.40;5.95;;;;;;;13.95;97.62;101573.06;5085970;28;20109;-61
2022/10/28 03:24:59;;;;;;;18.05;6.03;;;;;;;13.99;97.31;101573.56;5085161;28;20078;-58
2022/10/28 03:27:24;;;;;;;15.40;5.90;;;;;;;13.98;97.68;101566.56;5086023;28;20044;-58
2022/10/28 03:29:49;;;;;;;19.60;6.32;;;;;;;14.02;97.64;101559.91;5084414;28;20038;-58
2022/10/28 03:32:14;;;;;;;18.02;6.15;;;;;;;14.05;97.63;101567.56;5085735;28;20028;-59
2022/10/28 03:34:40;;;;;;;17.63;6.15;;;;;;;14.07;97.28;101562.88;5084602;28;20031;-59
2022/10/28 03:37:05;;;;;;;15.82;5.95;;;;;;;14.07;97.29;101557.53;5085115;28;20569;-61
2022/10/28 03:39:30;;;;;;;15.38;5.40;;;;;;;14.07;96.58;101560.22;5083348;28;20146;-59
2022/10/28 03:41:56;;;;;;;14.60;5.53;;;;;;;14.07;97.22;101565.53;5082001;28;20132;-58
2022/10/28 03:44:21;;;;;;;17.88;5.80;;;;;;;14.07;97.41;101562.88;5084769;28;20534;-61
2022/10/28 03:46:46;;;;;;;20.42;6.07;;;;;;;14.11;97.39;101556.22;5080883;28;20674;-59
2022/10/28 03:49:12;;;;;;;14.05;5.60;;;;;;;14.11;97.58;101558.88;5084282;28;20039;-58
2022/10/28 03:51:37;;;;;;;17.73;5.90;;;;;;;14.13;97.15;101554.22;5084767;28;20979;-60
2022/10/28 03:54:02;;;;;;;13.65;5.97;;;;;;;14.17;97.22;101559.22;5080674;28;20379;-60
2022/10/28 03:56:28;;;;;;;15.45;5.78;;;;;;;14.13;97.48;101554.22;5083426;28;20039;-58
2022/10/28 03:58:53;;;;;;;13.75;5.43;;;;;;;14.13;97.13;101554.22;5079624;28;20028;-58
2022/10/28 04:01:18;;;;;;;15.45;5.80;;;;;;;14.15;97.27;101550.56;5081797;28;20364;-60
2022/10/28 04:03:44;;;;;;;16.55;5.97;;;;;;;14.18;97.51;101558.22;5080195;28;20039;-58
2022/10/28 04:06:09;;;;;;;15.80;5.65;;;;;;;14.19;97.05;101562.53;5082931;28;20059;-57
2022/10/28 04:08:35;;;;;;;14.40;5.50;;;;;;;14.21;97.47;101560.56;5083387;28;20046;-58
2022/10/28 04:11:01;;;;;;;16.67;5.85;;;;;;;14.25;96.98;101553.88;5080891;28;20170;-61
2022/10/28 04:13:26;;;;;;;21.42;6.60;;;;;;;14.27;96.43;101551.88;5083022;28;20119;-59
2022/10/28 04:15:51;;;;;;;20.20;6.05;;;;;;;14.23;96.64;101558.53;5085382;28;20475;-58
2022/10/28 04:18:17;;;;;;;17.50;6.15;;;;;;;14.22;96.42;101552.38;5084982;28;20316;-60
2022/10/28 04:20:44;;;;;;;18.23;5.85;;;;;;;14.22;96.30;101567.56;5082953;28;20729;-57
2022/10/28 04:23:14;;;;;;;16.60;6.00;;;;;;;14.24;96.65;101565.53;5083567;28;20036;-58
2022/10/28 04:25:40;;;;;;;15.90;5.95;;;;;;;14.26;96.44;101564.38;5084355;28;20035;-59
2022/10/28 04:28:05;;;;;;;16.05;5.93;;;;;;;14.27;96.45;101559.88;5080106;28;20028;-60
2022/10/28 04:30:30;;;;;;;16.75;5.72;;;;;;;14.27;96.29;101554.56;5075937;28;20039;-59
2022/10/28 04:32:55;;;;;;;17.38;6.13;;;;;;;14.28;96.16;101564.22;5082836;28;20073;-58
2022/10/28 04:35:21;;;;;;;14.93;5.65;;;;;;;14.28;96.41;101569.56;5083518;28;20036;-58
2022/10/28 04:37:46;;;;;;;15.75;5.85;;;;;;;14.30;96.25;101564.88;5080418;28;20109;-60
2022/10/28 04:40:12;;;;;;;14.57;6.30;;;;;;;14.25;96.23;101567.19;5072822;28;20032;-59
2022/10/28 04:42:37;;;;;;;20.17;5.82;;;;;;;14.23;95.98;101558.53;5077895;28;20024;-58
2022/10/28 04:45:02;;;;;;;15.45;5.97;;;;;;;14.23;96.24;101562.06;5075581;28;20077;-61
2022/10/28 04:47:28;;;;;;;15.73;5.70;;;;;;;14.20;96.24;101558.88;5073870;28;20029;-61
2022/10/28 04:49:53;;;;;;;21.20;6.07;;;;;;;14.20;96.23;101558.88;5073031;28;20746;-60
2022/10/28 04:52:18;;;;;;;12.05;5.60;;;;;;;14.18;96.56;101555.53;5077015;28;20043;-58
2022/10/28 04:54:43;;;;;;;20.95;6.15;;;;;;;14.17;96.21;101559.22;5077228;28;20028;-57
2022/10/28 04:57:09;;;;;;;18.40;5.88;;;;;;;14.15;96.39;101555.91;5070986;28;20039;-58
2022/10/28 04:59:34;;;;;;;22.70;6.10;;;;;;;14.13;96.27;101546.19;5072538;28;20035;-57
2022/10/28 05:01:59;;;;;;;18.52;6.28;;;;;;;14.10;96.36;101549.22;5068221;28;20046;-59
2022/10/28 05:04:25;;;;;;;18.92;6.00;;;;;;;14.12;96.58;101541.06;5070230;28;20028;-57
2022/10/28 05:06:50;;;;;;;16.05;6.00;;;;;;;14.08;96.10;101545.91;5068638;28;20032;-58
2022/10/28 05:09:15;;;;;;;18.17;6.00;;;;;;;14.07;96.87;101554.88;5067341;28;20036;-58
2022/10/28 05:11:41;;;;;;;21.00;6.20;;;;;;;14.04;96.47;101549.88;5076783;28;20039;-58
2022/10/28 05:14:06;;;;;;;18.17;6.35;;;;;;;14.06;96.27;101558.53;5067885;28;20028;-59
2022/10/28 05:16:31;;;;;;;18.63;6.00;;;;;;;14.05;96.41;101559.56;5076659;28;20055;-58
2022/10/28 05:18:57;;;;;;;19.67;6.35;;;;;;;14.03;96.68;101564.22;5075641;28;20034;-58
2022/10/28 05:21:22;;;;;;;17.13;5.78;;;;;;;14.03;97.04;101558.91;5081222;28;20028;-59
2022/10/28 05:23:48;;;;;;;19.33;6.15;;;;;;;14.04;96.65;101560.56;5083744;28;20032;-60
2022/10/28 05:26:13;;;;;;;16.92;5.90;;;;;;;14.06;96.83;101552.41;5076302;28;20032;-60
2022/10/28 05:28:39;;;;;;;15.38;5.82;;;;;;;14.05;96.57;101554.22;5067943;28;20035;-58
2022/10/28 05:31:04;;;;;;;14.90;5.78;;;;;;;14.05;96.49;101546.22;5077101;28;20024;-58
2022/10/28 05:33:30;;;;;;;20.10;6.20;;;;;;;14.04;96.55;101541.03;5077123;28;20051;-58
2022/10/28 05:35:57;;;;;;;19.58;6.70;;;;;;;14.04;96.39;101544.56;5075545;28;20035;-58
2022/10/28 05:38:23;;;;;;;18.58;6.45;;;;;;;14.06;96.73;101547.88;5075501;28;20066;-59
2022/10/28 05:40:48;;;;;;;21.15;6.10;;;;;;;14.06;96.59;101547.88;5074942;28;20075;-58
2022/10/28 05:43:13;;;;;;;18.83;6.28;;;;;;;14.07;96.59;101538.06;5065718;28;20487;-59
2022/10/28 05:45:39;;;;;;;15.05;6.22;;;;;;;14.07;96.33;101544.22;5070061;28;20024;-58
2022/10/28 05:48:04;;;;;;;18.52;6.50;;;;;;;14.07;96.06;101549.53;5068233;28;20162;-60
2022/10/28 05:50:30;;;;;;;17.35;6.70;;;;;;;14.06;96.02;101539.88;5074908;28;20513;-58
2022/10/28 05:52:56;;;;;;;16.45;6.30;;;;;;;14.06;96.75;101541.72;5073661;28;20028;-61
2022/10/28 05:55:26;;;;;;;16.05;5.90;;;;;;;14.07;96.61;101544.22;5074676;28;20382;-61
2022/10/28 05:57:52;;;;;;;19.90;6.53;;;;;;;14.04;96.32;101541.88;5073563;28;21895;-60
2022/10/28 06:00:19;;;;;;;19.40;6.05;;;;;;;14.03;96.55;101548.22;5072215;28;20029;-59
2022/10/28 06:02:45;;;;;;;19.63;6.03;;;;;;;13.99;96.72;101542.41;5070548;28;20487;-61
2022/10/28 06:05:10;;;;;;;18.33;6.35;;;;;;;13.94;96.42;101544.72;5072831;28;20119;-60
2022/10/28 06:07:37;;;;;;;19.13;6.05;;;;;;;13.95;96.57;101545.53;5071028;28;20032;-58
2022/10/28 06:10:04;;;;;;;15.88;6.20;;;;;;;13.93;96.85;101544.88;5072639;28;20471;-59
2022/10/28 06:12:29;;;;;;;16.05;6.40;;;;;;;13.92;96.88;101551.22;5075218;28;20039;-59
2022/10/28 06:14:55;;;;;;;15.50;6.15;;;;;;;13.90;97.00;101548.72;5079509;28;20032;-58
2022/10/28 06:17:20;;;;;;;18.52;6.75;;;;;;;13.88;97.21;101560.53;5080501;28;20369;-59
2022/10/28 06:19:45;;;;;;;20.10;6.35;;;;;;;13.85;97.33;101554.56;5081987;28;20567;-60
2022/10/28 06:22:11;;;;;;;17.45;6.50;;;;;;;13.85;97.68;101562.56;5081673;28;20039;-61
2022/10/28 06:24:36;;;;;;;20.92;6.95;;;;;;;13.87;97.39;101556.22;5079222;28;20024;-59
2022/10/28 06:27:01;;;;;;;15.93;6.25;;;;;;;13.85;97.38;101559.88;5073931;28;20075;-60
2022/10/28 06:29:27;;;;;;;20.75;6.70;;;;;;;13.84;97.51;101558.22;5079996;28;20024;-58
2022/10/28 06:31:52;;;;;;;17.52;6.90;;;;;;;13.84;97.58;101558.22;5082681;28;20395;-58
2022/10/28 06:34:17;;;;;;;16.35;6.72;;;;;;;13.82;97.57;101560.19;5078729;28;20666;-61
2022/10/28 06:36:42;;;;;;;18.25;6.55;;;;;;;13.82;97.51;101560.19;5079869;28;20402;-59
2022/10/28 06:39:08;;;;;;;23.55;7.00;;;;;;;13.81;97.78;101561.22;5080615;28;20387;-58
2022/10/28 06:41:33;;;;;;;21.25;6.88;;;;;;;13.82;97.65;101557.53;5082723;28;20097;-59
2022/10/28 06:43:58;;;;;;;20.83;6.80;;;;;;;13.80;97.89;101556.88;5082159;28;20035;-59
2022/10/28 06:46:24;;;;;;;21.65;6.10;;;;;;;13.80;97.96;101556.88;5079773;28;20644;-59
2022/10/28 06:48:49;;;;;;;20.02;6.07;;;;;;;13.76;98.23;101558.19;5079527;28;20039;-58
2022/10/28 06:51:16;;;;;;;23.15;6.80;;;;;;;13.77;98.49;101559.88;5071832;28;20040;-58
2022/10/28 06:53:41;;;;;;;17.35;7.20;;;;;;;13.77;98.38;101551.88;5067324;28;20041;-60
2022/10/28 06:56:08;;;;;;;21.42;7.05;;;;;;;13.73;98.66;101563.88;5073752;28;20028;-61
2022/10/28 06:58:33;;;;;;;19.77;6.63;;;;;;;13.78;98.63;101548.22;5081575;28;20040;-58
2022/10/28 07:01:02;;;;;;;19.88;7.32;;;;;;;13.79;98.57;101552.56;5082569;28;20453;-58
2022/10/28 07:03:27;;;;;;;19.02;7.18;;;;;;;13.82;98.31;101549.53;5077058;28;20039;-60
2022/10/28 07:05:53;;;;;;;22.25;8.02;;;;;;;13.83;98.79;101556.53;5080079;28;20036;-59
2022/10/28 07:08:19;;;;;;;22.98;7.10;;;;;;;13.84;98.46;101560.91;5080383;28;20028;-61
2022/10/28 07:11:01;;;;;;;22.50;7.00;;;;;;;13.84;99.00;101552.91;5071654;28;20047;-58
2022/10/28 07:13:28;;;;;;;21.23;7.37;;;;;;;13.87;98.93;101554.41;5078736;28;20028;-61
2022/10/28 07:15:55;;;;;;;20.52;6.82;;;;;;;13.89;99.06;101556.88;5080671;28;20506;-58
2022/10/28 07:18:21;;;;;;;20.50;7.50;;;;;;;13.95;99.58;101553.53;5068713;28;20028;-59
2022/10/28 07:20:46;;;;;;;18.45;6.75;;;;;;;13.96;99.11;101557.91;5081580;28;20093;-60
2022/10/28 07:23:12;;;;;;;22.75;7.80;;;;;;;14.05;98.79;101564.03;5080862;28;20538;-59
2022/10/28 07:25:37;;;;;;;23.55;7.15;;;;;;;14.06;99.38;101563.88;5078452;28;20035;-59
2022/10/28 07:28:03;;;;;;;17.50;7.13;;;;;;;14.15;99.23;101569.22;5079310;28;20161;-59
2022/10/28 07:30:28;;;;;;;19.65;6.95;;;;;;;14.23;98.91;101574.56;5080722;28;20475;-58
2022/10/28 07:32:54;;;;;;;21.77;7.95;;;;;;;14.26;98.64;101574.19;5076819;28;20127;-58
2022/10/28 07:35:19;;;;;;;23.52;7.25;;;;;;;14.34;98.49;101582.22;5068667;28;20402;-59
2022/10/28 07:37:45;;;;;;;19.00;6.88;;;;;;;14.44;97.97;101575.84;5070894;28;20079;-58
2022/10/28 07:40:10;;;;;;;20.17;6.97;;;;;;;14.52;97.87;101579.34;5066525;28;20510;-59
2022/10/28 07:42:36;;;;;;;21.40;6.78;;;;;;;14.61;97.14;101577.50;5075103;28;20032;-59
2022/10/28 07:45:01;;;;;;;17.35;7.10;;;;;;;14.71;96.68;101576.47;5075597;28;20496;-58
2022/10/28 07:47:27;;;;;;;22.23;6.82;;;;;;;14.81;96.03;101582.50;5078800;28;20139;-58
2022/10/28 07:49:53;;;;;;;18.40;6.68;;;;;;;14.91;96.39;101567.09;5079978;28;20020;-58
2022/10/28 07:52:19;;;;;;;20.77;7.28;;;;;;;14.98;95.58;101561.06;5075751;28;20052;-58
2022/10/28 07:54:44;;;;;;;21.95;6.68;;;;;;;15.06;95.27;101558.38;5079116;28;20071;-58
2022/10/28 07:57:09;;;;;;;20.60;6.68;;;;;;;15.12;95.10;101557.69;5080550;28;20104;-59
2022/10/28 07:59:34;;;;;;;20.58;6.80;;;;;;;15.24;94.53;101554.63;5078804;28;20026;-60
2022/10/28 08:02:00;;;;;;;21.55;7.00;;;;;;;15.30;94.82;101559.25;5075921;28;20028;-60
2022/10/28 08:04:28;;;;;;;19.95;6.85;;;;;;;15.38;94.12;101561.88;5080846;28;20514;-59
2022/10/28 08:06:53;;;;;;;20.80;6.75;;;;;;;15.46;93.53;101567.16;5079497;28;20395;-59
2022/10/28 08:09:19;;;;;;;18.75;6.43;;;;;;;15.56;93.33;101560.78;5077226;28;20046;-58
2022/10/28 08:11:44;;;;;;;18.77;6.13;;;;;;;15.64;92.90;101563.38;5075512;28;20028;-59
2022/10/28 08:14:09;;;;;;;16.77;6.30;;;;;;;15.70;92.84;101573.38;5077520;28;20035;-58
2022/10/28 08:16:35;;;;;;;20.63;6.75;;;;;;;15.77;92.17;101583.34;5074950;28;20112;-60
2022/10/28 08:19:00;;;;;;;18.95;6.40;;;;;;;15.80;92.25;101591.03;5089495;28;20077;-58
2022/10/28 08:21:25;;;;;;;16.02;6.45;;;;;;;15.84;92.04;101589.66;5072462;28;20070;-61
2022/10/28 08:23:52;;;;;;;19.08;6.45;;;;;;;15.85;92.15;101588.66;5080173;28;20024;-58
2022/10/28 08:26:18;;;;;;;18.77;6.70;;;;;;;15.91;91.45;101593.28;5077398;28;20036;-60
2022/10/28 08:28:44;;;;;;;22.30;6.18;;;;;;;15.92;91.94;101589.63;5078612;28;20090;-60
2022/10/28 08:31:11;;;;;;;18.05;6.72;;;;;;;15.95;91.28;101593.78;5078226;28;20029;-58
2022/10/28 08:33:38;;;;;;;18.83;6.80;;;;;;;15.94;91.45;101587.59;5074806;28;20040;-58
2022/10/28 08:36:03;;;;;;;19.08;6.35;;;;;;;15.94;91.91;101592.94;5080369;28;20063;-58
2022/10/28 08:38:29;;;;;;;16.38;6.43;;;;;;;15.96;92.00;101590.94;5077671;28;20499;-59
2022/10/28 08:41:02;;;;;;;20.27;6.43;;;;;;;15.99;92.09;101595.94;5079534;28;20040;-58
2022/10/28 08:44:04;;;;;;;18.65;6.57;;;;;;;16.03;92.71;101590.22;5080106;28;20032;-58
2022/10/28 08:47:07;;;;;;;13.83;6.10;;;;;;;16.07;92.32;101581.66;5078443;28;20040;-59
2022/10/28 08:49:35;;;;;;;;;;;;;;;16.11;93.08;101577.63;5076531;28;20032;-60
2022/10/28 08:52:19;;;;;;;15.45;6.10;;;;;;;16.21;91.88;101572.00;5079475;28;19916;-58
2022/10/28 08:55:14;;;;;;;17.80;6.32;;;;;;;16.30;91.81;101580.78;5070164;28;20028;-58
2022/10/28 08:58:01;;;;;;;18.88;6.30;;;;;;;16.41;91.33;101576.84;5066349;28;20058;-58
2022/10/28 09:00:31;;;;;;;21.40;6.20;;;;;;;16.53;90.03;101580.72;5075485;28;20589;-58
2022/10/28 09:03:11;;;;;;;21.50;6.20;;;;;;;16.62;89.90;101583.34;5074378;28;20323;-59
2022/10/28 09:05:39;;;;;;;22.23;6.57;;;;;;;16.71;89.85;101587.56;5071242;28;20036;-58
2022/10/28 09:08:08;;;;;;;20.60;6.25;;;;;;;16.79;88.75;101590.16;5077853;28;20143;-59
2022/10/28 09:10:40;;;;;;;17.75;6.57;;;;;;;16.87;88.43;101591.09;5076446;28;20030;-59
2022/10/28 09:13:15;;;;;;;18.67;6.28;;;;;;;16.93;88.80;101590.34;5075327;28;20143;-59
2022/10/28 09:15:57;;;;;;;22.10;6.18;;;;;;;16.98;88.70;101604.03;5077883;28;20071;-58
2022/10/28 09:18:45;;;;;;;21.27;6.30;;;;;;;17.06;88.40;101601.28;5078266;28;20126;-59
2022/10/28 09:21:21;;;;;;;18.67;6.03;;;;;;;17.20;87.46;101601.44;5074555;28;20082;-59
2022/10/28 09:23:59;;;;;;;19.13;6.13;;;;;;;17.31;87.00;101609.00;5078844;28;20060;-59
2022/10/28 09:26:34;;;;;;;22.73;6.25;;;;;;;17.42;85.59;101594.28;5075897;28;20024;-60
2022/10/28 09:29:26;;;;;;;15.10;5.65;;;;;;;17.56;85.56;101595.25;5079842;28;20109;-59
2022/10/28 09:32:13;;;;;;;18.90;5.85;;;;;;;17.63;85.65;101599.88;5075336;28;20086;-60
2022/10/28 09:34:41;;;;;;;17.33;5.68;;;;;;;17.63;84.63;101602.53;5075828;28;20024;-59
2022/10/28 09:37:16;;;;;;;14.90;5.80;;;;;;;17.61;84.77;101606.25;5069443;28;20791;-60
2022/10/28 09:39:51;;;;;;;17.48;5.47;;;;;;;17.61;84.72;101603.56;5070832;28;20126;-62
2022/10/28 09:42:24;;;;;;;18.20;6.00;;;;;;;17.60;84.14;101607.28;5074700;28;20044;-59
2022/10/28 09:44:55;;;;;;;;;;;;;;;17.63;86.80;101615.94;5073167;28;20498;-59
2022/10/28 09:47:34;;;;;;;20.08;6.00;;;;;;;17.70;83.86;101604.28;5075909;28;20238;-60
2022/10/28 09:50:04;;;;;;;17.98;5.57;;;;;;;17.78;82.95;101608.69;5075296;28;20501;-62
2022/10/28 09:52:37;;;;;;;20.33;6.22;;;;;;;17.84;82.63;101605.25;5085204;28;20035;-59
2022/10/28 09:55:14;;;;;;;16.77;5.68;;;;;;;17.90;82.78;101609.00;5085547;28;20031;-59
2022/10/28 09:57:39;;;;;;;19.58;5.47;;;;;;;17.99;82.78;101604.34;5080581;28;20036;-60
2022/10/28 10:00:06;;;;;;;16.67;5.63;;;;;;;18.02;82.19;101609.34;5081585;28;20035;-59
2022/10/28 10:02:32;;;;;;;18.92;5.65;;;;;;;18.10;81.79;101611.91;5085254;28;20032;-60
2022/10/28 10:05:00;;;;;;;19.25;6.00;;;;;;;18.18;82.14;101612.78;5079123;28;20024;-58
2022/10/28 10:07:39;;;;;;;16.75;5.38;;;;;;;18.26;80.74;101607.31;5087933;28;20032;-59
2022/10/28 10:10:18;;;;;;;15.25;5.75;;;;;;;18.32;80.35;101595.78;5079967;28;20032;-59
2022/10/28 10:12:46;;;;;;;17.40;5.53;;;;;;;18.36;79.79;101609.66;5084553;28;20042;-60
2022/10/28 10:15:22;;;;;;;20.63;5.50;;;;;;;18.38;79.66;101608.44;5081610;28;20032;-62
2022/10/28 10:17:48;;;;;;;16.38;5.50;;;;;;;18.48;79.73;101607.25;5072855;28;20678;-58
2022/10/28 10:20:16;;;;;;;17.17;5.65;;;;;;;18.44;79.67;101608.69;5074575;28;20036;-59
2022/10/28 10:22:44;;;;;;;20.50;5.57;;;;;;;18.49;79.42;101604.38;5079299;28;20506;-60
2022/10/28 10:25:29;;;;;;;14.80;5.43;;;;;;;18.56;79.92;101604.44;5079446;28;20314;-59
2022/10/28 10:28:04;;;;;;;23.23;5.70;;;;;;;18.65;78.66;101605.91;5077587;28;20462;-61
2022/10/28 10:30:48;;;;;;;15.20;5.35;;;;;;;18.69;79.26;101593.75;5081256;28;20028;-61
2022/10/28 10:33:21;;;;;;;16.88;5.28;;;;;;;18.72;78.53;101603.28;5071683;28;20040;-58
2022/10/28 10:35:52;;;;;;;;;;;;;;;18.72;80.96;101602.44;5069833;28;20453;-59
2022/10/28 10:38:18;;;;;;;17.17;5.47;;;;;;;18.76;78.28;101599.16;5083378;28;19923;-61
2022/10/28 10:40:51;;;;;;;18.88;5.70;;;;;;;18.78;78.15;101588.22;5082607;28;20043;-61
2022/10/28 10:43:16;;;;;;;17.63;5.55;;;;;;;18.88;77.45;101582.47;5083329;28;20028;-60
2022/10/28 10:45:51;;;;;;;16.38;5.20;;;;;;;18.94;76.03;101579.84;5082647;28;20055;-58
2022/10/28 10:48:17;;;;;;;19.27;6.00;;;;;;;19.12;75.93;101575.81;5081006;28;20039;-59
2022/10/28 10:50:45;;;;;;;16.77;5.60;;;;;;;19.12;74.79;101567.75;5069067;28;20039;-59
2022/10/28 10:53:24;;;;;;;20.88;5.38;;;;;;;19.26;74.59;101581.22;5082634;28;20035;-58
2022/10/28 10:55:52;;;;;;;16.75;4.97;;;;;;;19.29;73.33;101570.09;5082411;28;20096;-59
2022/10/28 10:58:21;;;;;;;15.40;5.13;;;;;;;19.39;72.73;101583.94;5082403;28;20032;-60
2022/10/28 11:00:49;;;;;;;18.77;5.10;;;;;;;19.49;71.88;101591.66;5082576;28;20054;-58
2022/10/28 11:03:37;;;;;;;18.10;5.75;;;;;;;19.54;72.50;101588.34;5081879;28;20212;-59
2022/10/28 11:06:06;;;;;;;19.45;5.38;;;;;;;19.59;73.18;101583.19;5081361;28;20410;-61
2022/10/28 11:08:37;;;;;;;19.23;5.63;;;;;;;19.66;71.66;101592.09;5082050;28;20039;-60
2022/10/28 11:11:11;;;;;;;18.10;5.25;;;;;;;19.71;72.24;101584.25;5082676;28;20036;-59
2022/10/28 11:13:37;;;;;;;18.73;5.57;;;;;;;19.73;70.96;101589.41;5077126;28;20384;-58
2022/10/28 11:16:17;;;;;;;19.55;4.78;;;;;;;19.73;70.07;101582.19;5074148;28;20024;-59
2022/10/28 11:18:47;;;;;;;18.42;4.88;;;;;;;19.72;70.94;101579.69;5082415;28;20947;-59
2022/10/28 11:21:30;;;;;;;20.20;5.15;;;;;;;19.75;68.83;101563.97;5082288;28;20059;-59
2022/10/28 11:24:31;;;;;;;17.98;5.05;;;;;;;19.72;69.98;101567.06;5082227;28;20036;-61
2022/10/28 11:27:10;;;;;;;16.58;4.90;;;;;;;19.71;70.35;101573.50;5019399;28;20049;-59
2022/10/28 11:29:35;;;;;;;20.50;5.15;;;;;;;19.73;68.97;101566.03;5060529;28;20101;-58